Flight Track Log - Related Links

Times and Time Zones

All times are in EDT time to prevent confusion due to time zone crossing. See the N830QS flight status page for this flight to view local times or setup timezone preferences in your user account.

Time Position Orientation Groundspeed Altitude Reporting Facility
EDT Latitude Longitude Course Direction KTS MPH feet Rate Location/Type
Thu 09:20:02 AM 36.5764 -121.7856 84° East 227 261 3,100  Level Oakland Center
Thu 09:21:03 AM 36.5908 -121.6867 80° East 236 272 6,100 3,049 Climbing Oakland Center
Thu 09:22:04 AM 36.6044 -121.5878 80° East 264 304 9,300 3,223 Climbing Oakland Center
Thu 09:23:04 AM 36.6186 -121.4842 80° East 288 331 12,600 2,975 Climbing Oakland Center
Thu 09:24:05 AM 36.6339 -121.3761 80° East 304 350 15,300 2,529 Climbing Oakland Center
Thu 09:25:00 AM 36.6765 -121.2224 84° East  Level FlightAware Approximate
Thu 09:25:05 AM 36.6500 -121.2650 80° East 317 365 17,700  Level Oakland Center
Thu 09:26:06 AM 36.6661 -121.1492 80° East 329 379 19,900 1,967 Climbing Oakland Center
Thu 09:27:07 AM 36.6817 -121.0267 81° East 347 399 21,700 1,537 Climbing Oakland Center
Thu 09:28:07 AM 36.6994 -120.8981 80° East 368 423 23,000 645 Climbing Oakland Center
Thu 09:29:08 AM 36.7186 -120.7581 80° East 397 457 23,000  Level Oakland Center
Thu 09:30:09 AM 36.7444 -120.6192 77° East 406 467 23,000  Level Oakland Center
Thu 09:31:09 AM 36.7686 -120.4833 77° East 406 467 23,000  Level Oakland Center
Thu 09:32:10 AM 36.7925 -120.3481 78° East 403 464 23,000  Level Oakland Center
Thu 09:33:11 AM 36.8156 -120.2122 78° East 400 460 23,000  Level Oakland Center
Thu 09:34:12 AM 36.8394 -120.0772 77° East 398 458 23,000  Level Oakland Center
Thu 09:35:12 AM 36.8628 -119.9414 78° East 400 460 23,000  Level Oakland Center
Thu 09:36:13 AM 36.8828 -119.8061 79° East 398 458 23,000  Level Oakland Center
Thu 09:37:14 AM 36.8617 -119.6692 101° East 403 464 23,000  Level Oakland Center
Thu 09:38:15 AM 36.8392 -119.5353 102° East 396 456 23,000 -49 Level Oakland Center
Thu 09:39:16 AM 36.8186 -119.4003 101° East 396 456 22,900 -843 Descending Oakland Center
Thu 09:40:16 AM 36.7961 -119.2617 101° East 405 466 21,300 -1,835 Descending Oakland Center
Thu 09:41:17 AM 36.7703 -119.1031 101° East 393 452 19,200 -1,918 Descending Oakland Center
Thu 09:42:18 AM 36.7503 -118.9778 101° East 375 432 17,400 -1,082 Descending Oakland Center
Thu 09:43:19 AM 36.7314 -118.8611 101° East 344 396 17,000 -197 Descending Oakland Center
Thu 09:44:20 AM 36.7117 -118.7461 102° East 341 392 17,000 -49 Level Oakland Center
Thu 09:45:21 AM 36.6933 -118.6350 102° East 331 381 16,900 -49 Descending Oakland Center
Thu 09:46:22 AM 36.6794 -118.5406 100° East 278 320 16,900 49 Level Oakland Center
Thu 09:47:23 AM 36.6678 -118.4553 100° East 252 290 17,000 50 Climbing Oakland Center
Thu 09:48:23 AM 36.6569 -118.3694 99° East 250 288 17,000  Level Oakland Center
Thu 09:49:24 AM 36.6453 -118.2792 99° East 258 297 17,000 -98 Level Oakland Center
Thu 09:50:25 AM 36.6314 -118.1872 101° East 264 304 16,800 -1,131 Descending Oakland Center
Thu 09:51:26 AM 36.6150 -118.1011 103° East 259 298 14,700 -1,426 Descending Oakland Center
Thu 09:52:27 AM 36.5894 -118.0286 114° Southeast 256 295 13,900 -787 Descending Oakland Center
Thu 09:54:00 AM 36.5833 -118.0333 90° East  Level FlightAware Approximate
Thu 10:01:00 AM 36.5887 -118.0494 90° East  Level Estimated

Login

Don't have an account? Register now (free) for customized features, flight alerts, and more!